Time;durP1;ratioP1;P1;durP2;ratioP2;P2;SDS_P1;SDS_P2;PMS_P1;PMS_P2;Temp;Humidity;BMP_temperature;BMP_pressure;BME280_temperature;BME280_humidity;BME280_pressure;Samples;Min_cycle;Max_cycle;Signal;HPM_P1;HPM_P2
2020/12/17 00:01:13;;;;;;;10.00;6.68;;;10.00;86.30;;;;;;5064370;28;20033;-74
2020/12/17 00:03:39;;;;;;;10.27;6.63;;;10.00;86.30;;;;;;5068416;28;20036;-74
2020/12/17 00:06:04;;;;;;;11.48;6.53;;;10.00;86.20;;;;;;5062440;28;20045;-73
2020/12/17 00:08:30;;;;;;;11.20;7.10;;;10.10;86.40;;;;;;5066185;28;20029;-74
2020/12/17 00:10:55;;;;;;;10.50;6.63;;;10.10;86.60;;;;;;5064413;28;20063;-74
2020/12/17 00:13:22;;;;;;;11.98;6.47;;;10.00;87.20;;;;;;5066830;28;20041;-73
2020/12/17 00:15:48;;;;;;;10.65;6.50;;;10.00;87.50;;;;;;5066265;28;20033;-78
2020/12/17 00:18:13;;;;;;;9.82;6.75;;;10.00;87.90;;;;;;5063853;28;20037;-74
2020/12/17 00:20:39;;;;;;;10.18;7.00;;;9.90;88.00;;;;;;5058150;28;20033;-73
2020/12/17 00:23:05;;;;;;;9.10;6.40;;;10.00;88.30;;;;;;5061982;28;20094;-74
2020/12/17 00:25:30;;;;;;;11.50;7.28;;;10.00;88.40;;;;;;5067599;28;20033;-75
2020/12/17 00:27:56;;;;;;;11.05;6.90;;;9.90;88.80;;;;;;5065243;28;20029;-74
2020/12/17 00:30:22;;;;;;;11.73;7.55;;;9.90;88.80;;;;;;5061499;28;20037;-73
2020/12/17 00:32:48;;;;;;;10.35;7.10;;;9.90;88.90;;;;;;5065588;28;20043;-73
2020/12/17 00:35:14;;;;;;;10.98;6.93;;;9.90;89.10;;;;;;5063777;28;20049;-74
2020/12/17 00:37:40;;;;;;;10.30;7.38;;;9.90;89.20;;;;;;5064076;28;20033;-73
2020/12/17 00:40:09;;;;;;;9.98;7.30;;;9.90;89.30;;;;;;5059552;28;20538;-75
2020/12/17 00:42:38;;;;;;;10.32;7.35;;;9.80;89.30;;;;;;5055127;28;20364;-73
2020/12/17 00:45:04;;;;;;;10.63;7.53;;;9.80;89.40;;;;;;5067500;28;20025;-74
2020/12/17 00:47:30;;;;;;;9.73;7.35;;;9.80;89.30;;;;;;5054632;28;20036;-73
2020/12/17 00:49:56;;;;;;;11.27;7.90;;;9.80;89.40;;;;;;5066564;28;20043;-73
2020/12/17 00:52:22;;;;;;;12.85;7.80;;;9.80;89.60;;;;;;5060536;28;20129;-75
2020/12/17 00:54:49;;;;;;;11.70;8.02;;;9.80;89.60;;;;;;5063767;28;20037;-77
2020/12/17 00:57:15;;;;;;;10.98;7.93;;;9.80;89.70;;;;;;5063516;28;20083;-73
2020/12/17 00:59:41;;;;;;;12.07;7.82;;;9.80;89.70;;;;;;5066154;28;20205;-73
2020/12/17 01:02:06;;;;;;;11.88;7.95;;;9.80;89.90;;;;;;5064481;28;20119;-73
2020/12/17 01:04:32;;;;;;;11.70;8.55;;;9.80;89.80;;;;;;5061805;28;20062;-73
2020/12/17 01:06:58;;;;;;;11.63;8.27;;;9.80;89.90;;;;;;5059507;28;20505;-73
2020/12/17 01:09:24;;;;;;;11.90;7.82;;;9.80;89.90;;;;;;5063531;28;20028;-78
2020/12/17 01:11:49;;;;;;;13.30;9.00;;;9.70;90.00;;;;;;5060517;28;20040;-74
2020/12/17 01:14:15;;;;;;;12.27;9.07;;;9.70;90.20;;;;;;5063063;28;20367;-73
2020/12/17 01:16:41;;;;;;;12.82;9.35;;;9.70;90.30;;;;;;5056258;28;20029;-73
2020/12/17 01:19:06;;;;;;;11.55;8.73;;;9.70;90.50;;;;;;5066094;28;20498;-74
2020/12/17 01:21:32;;;;;;;12.32;8.93;;;9.70;90.70;;;;;;5066471;28;20489;-74
2020/12/17 01:23:57;;;;;;;13.50;9.10;;;9.70;90.80;;;;;;5052642;28;20543;-74
2020/12/17 01:26:23;;;;;;;12.48;8.63;;;9.70;90.80;;;;;;5056060;28;20491;-74
2020/12/17 01:28:49;;;;;;;12.45;8.65;;;9.60;91.00;;;;;;5064931;28;20028;-74
2020/12/17 01:31:15;;;;;;;12.23;8.98;;;9.60;91.10;;;;;;5065394;28;20420;-74
2020/12/17 01:33:42;;;;;;;16.17;10.38;;;9.60;91.20;;;;;;5053076;28;20033;-74
2020/12/17 01:36:10;;;;;;;15.90;10.20;;;9.60;91.30;;;;;;5061573;28;20031;-75
2020/12/17 01:38:37;;;;;;;14.95;10.55;;;9.60;91.40;;;;;;5050304;28;20044;-75
2020/12/17 01:41:04;;;;;;;13.00;9.55;;;9.60;91.50;;;;;;5064868;28;20033;-74
2020/12/17 01:43:38;;;;;;;15.90;10.23;;;9.60;91.50;;;;;;5064736;28;20044;-74
2020/12/17 01:46:04;;;;;;;15.43;10.03;;;9.60;91.60;;;;;;5059511;28;20124;-74
2020/12/17 01:48:31;;;;;;;14.68;11.00;;;9.60;91.70;;;;;;5060765;28;20486;-75
2020/12/17 01:50:57;;;;;;;14.07;9.95;;;9.60;92.00;;;;;;5056991;28;20096;-76
2020/12/17 01:53:23;;;;;;;14.10;11.25;;;9.60;92.00;;;;;;5065276;28;20059;-74
2020/12/17 01:55:48;;;;;;;14.82;11.10;;;9.60;92.10;;;;;;5067350;28;20116;-73
2020/12/17 01:58:23;;;;;;;14.68;11.73;;;9.60;92.10;;;;;;5068533;28;20037;-73
2020/12/17 02:00:54;;;;;;;13.30;11.30;;;9.50;92.10;;;;;;5061411;28;20447;-74
2020/12/17 02:03:21;;;;;;;15.35;11.25;;;9.50;92.20;;;;;;5068676;28;20032;-73
2020/12/17 02:05:48;;;;;;;15.48;10.95;;;9.60;92.20;;;;;;5070357;28;20024;-73
2020/12/17 02:08:17;;;;;;;14.80;11.07;;;9.50;92.30;;;;;;5063679;28;20033;-74
2020/12/17 02:10:42;;;;;;;14.48;11.40;;;9.50;92.40;;;;;;5060895;28;20036;-73
2020/12/17 02:13:08;;;;;;;14.80;11.43;;;9.50;92.40;;;;;;5055066;28;20051;-75
2020/12/17 02:15:34;;;;;;;14.75;11.60;;;9.50;92.50;;;;;;5063103;28;20416;-76
2020/12/17 02:17:59;;;;;;;16.25;12.07;;;9.50;92.60;;;;;;5061813;28;20175;-74
2020/12/17 02:20:25;;;;;;;15.75;12.60;;;9.50;92.60;;;;;;5066659;28;20082;-73
2020/12/17 02:22:51;;;;;;;16.58;12.45;;;9.50;92.70;;;;;;5067429;28;20501;-73
2020/12/17 02:25:17;;;;;;;15.82;12.55;;;9.50;92.80;;;;;;5067098;28;20045;-73
2020/12/17 02:27:43;;;;;;;15.88;13.48;;;9.40;92.80;;;;;;5065012;28;20025;-76
2020/12/17 02:30:10;;;;;;;16.67;11.73;;;9.50;92.80;;;;;;5063592;28;20721;-73
2020/12/17 02:32:37;;;;;;;16.88;12.93;;;9.40;92.80;;;;;;5062729;28;20029;-78
2020/12/17 02:35:05;;;;;;;17.65;13.00;;;9.40;92.80;;;;;;5068528;28;20033;-74
2020/12/17 02:37:32;;;;;;;16.88;13.55;;;9.40;92.90;;;;;;5069955;28;20086;-74
2020/12/17 02:39:58;;;;;;;17.83;13.95;;;9.40;93.00;;;;;;5066703;28;20395;-74
2020/12/17 02:42:23;;;;;;;18.77;14.18;;;9.40;93.00;;;;;;5066644;28;20024;-73
2020/12/17 02:44:49;;;;;;;17.45;14.18;;;9.40;93.00;;;;;;5067458;28;20033;-74
2020/12/17 02:47:14;;;;;;;18.63;14.52;;;9.40;93.10;;;;;;5064113;28;20044;-73
2020/12/17 02:49:40;;;;;;;17.00;14.25;;;9.30;93.20;;;;;;5068782;28;20033;-73
2020/12/17 02:52:06;;;;;;;18.17;14.38;;;9.30;93.30;;;;;;5062936;28;20368;-75
2020/12/17 02:54:31;;;;;;;17.85;14.50;;;9.30;93.30;;;;;;5066499;28;20090;-73
2020/12/17 02:56:57;;;;;;;20.67;14.60;;;9.30;93.30;;;;;;5063383;28;20433;-74
2020/12/17 02:59:23;;;;;;;16.60;14.63;;;9.30;93.30;;;;;;5067584;28;20024;-73
2020/12/17 03:01:49;;;;;;;18.27;14.65;;;9.40;93.30;;;;;;5062916;28;20036;-73
2020/12/17 03:04:15;;;;;;;18.75;14.95;;;9.30;93.30;;;;;;5061768;28;20025;-73
2020/12/17 03:06:40;;;;;;;19.02;15.23;;;9.30;93.30;;;;;;5054789;28;20658;-78
2020/12/17 03:09:07;;;;;;;19.73;15.77;;;9.30;93.40;;;;;;5066754;28;20140;-74
2020/12/17 03:11:32;;;;;;;18.65;15.57;;;9.20;93.40;;;;;;5039519;28;20017;-73
2020/12/17 03:13:58;;;;;;;18.27;15.50;;;9.30;93.40;;;;;;5033492;28;20374;-73
2020/12/17 03:16:24;;;;;;;20.02;15.55;;;9.20;93.40;;;;;;5044452;28;20078;-74
2020/12/17 03:18:50;;;;;;;18.42;15.43;;;9.20;93.40;;;;;;5046043;28;20447;-76
2020/12/17 03:21:15;;;;;;;18.48;14.68;;;9.20;93.50;;;;;;5032668;28;20037;-73
2020/12/17 03:23:41;;;;;;;19.92;16.10;;;9.20;93.50;;;;;;5054560;28;20033;-74
2020/12/17 03:26:08;;;;;;;21.50;15.55;;;9.20;93.60;;;;;;5035318;28;20060;-73
2020/12/17 03:28:34;;;;;;;20.15;16.70;;;9.10;93.60;;;;;;5045906;28;20029;-74
2020/12/17 03:31:00;;;;;;;18.75;16.02;;;9.10;93.60;;;;;;5039919;28;20394;-73
2020/12/17 03:33:25;;;;;;;18.42;16.27;;;9.10;93.60;;;;;;5048832;28;20024;-73
2020/12/17 03:35:51;;;;;;;20.23;15.95;;;9.10;93.60;;;;;;5043248;28;20045;-74
2020/12/17 03:38:17;;;;;;;19.35;16.50;;;9.10;93.60;;;;;;5061773;28;20188;-73
2020/12/17 03:40:43;;;;;;;20.98;16.00;;;9.20;93.70;;;;;;5055815;28;20084;-76
2020/12/17 03:43:09;;;;;;;23.33;18.48;;;9.10;93.60;;;;;;5044947;28;20040;-74
2020/12/17 03:45:35;;;;;;;21.90;17.15;;;9.10;93.60;;;;;;5047217;28;20025;-73
2020/12/17 03:48:00;;;;;;;21.15;17.58;;;9.10;93.70;;;;;;5043371;28;20052;-74
2020/12/17 03:50:26;;;;;;;20.67;17.98;;;9.10;93.70;;;;;;5045917;28;20033;-80
2020/12/17 03:52:52;;;;;;;21.42;18.15;;;9.10;93.70;;;;;;5048542;28;20087;-74
2020/12/17 03:55:17;;;;;;;21.27;17.23;;;9.10;93.80;;;;;;5068424;28;20422;-73
2020/12/17 03:57:43;;;;;;;21.60;17.52;;;9.10;93.80;;;;;;5063373;28;20040;-76
2020/12/17 04:00:09;;;;;;;20.85;17.05;;;9.10;93.80;;;;;;5069127;28;20616;-73
2020/12/17 04:02:35;;;;;;;21.67;17.13;;;9.10;93.80;;;;;;5054627;28;20021;-75
2020/12/17 04:05:00;;;;;;;20.98;16.88;;;9.10;93.80;;;;;;5066733;28;20017;-75
2020/12/17 04:07:26;;;;;;;21.15;16.48;;;9.10;93.80;;;;;;5068079;28;20021;-81
2020/12/17 04:09:52;;;;;;;20.77;16.63;;;9.10;93.80;;;;;;5063315;28;20139;-74
2020/12/17 04:12:18;;;;;;;21.05;15.85;;;9.10;93.80;;;;;;5065614;28;20051;-73
2020/12/17 04:14:44;;;;;;;20.58;15.40;;;9.10;93.80;;;;;;5066291;28;20033;-78
2020/12/17 04:17:09;;;;;;;20.42;15.35;;;9.10;93.80;;;;;;5064442;28;20043;-73
2020/12/17 04:19:35;;;;;;;19.25;15.55;;;9.10;93.80;;;;;;5063688;28;20035;-73
2020/12/17 04:22:01;;;;;;;18.60;15.15;;;9.10;93.80;;;;;;5054535;28;20054;-75
2020/12/17 04:24:28;;;;;;;17.00;13.98;;;9.00;93.80;;;;;;5064271;28;20085;-74
2020/12/17 04:26:54;;;;;;;20.92;15.95;;;9.10;93.80;;;;;;5068910;28;20032;-74
2020/12/17 04:29:20;;;;;;;16.60;13.95;;;9.10;93.80;;;;;;5063180;28;20033;-74
2020/12/17 04:31:46;;;;;;;18.05;14.15;;;9.10;93.70;;;;;;5061110;28;20033;-78
2020/12/17 04:34:11;;;;;;;19.17;13.48;;;9.10;93.80;;;;;;5058756;28;20135;-74
2020/12/17 04:36:38;;;;;;;17.85;12.73;;;9.10;93.70;;;;;;5063944;28;20539;-73
2020/12/17 04:39:04;;;;;;;15.52;12.18;;;9.10;93.60;;;;;;5061061;28;20037;-73
2020/12/17 04:41:31;;;;;;;17.10;12.90;;;9.10;93.50;;;;;;5056626;28;20044;-73
2020/12/17 04:43:58;;;;;;;16.35;11.98;;;9.10;93.40;;;;;;5066035;28;20037;-74
2020/12/17 04:46:25;;;;;;;16.45;11.95;;;9.10;93.40;;;;;;5065159;28;20420;-73
2020/12/17 04:48:53;;;;;;;14.82;11.48;;;9.10;93.30;;;;;;5063101;28;20024;-78
2020/12/17 04:51:20;;;;;;;17.13;11.80;;;9.10;93.30;;;;;;5064054;28;20044;-73
2020/12/17 04:53:48;;;;;;;15.82;11.27;;;9.10;93.10;;;;;;5061914;28;20056;-74
2020/12/17 04:56:16;;;;;;;14.07;10.18;;;9.00;93.00;;;;;;5062048;28;20442;-76
2020/12/17 04:58:47;;;;;;;14.70;9.48;;;9.00;93.00;;;;;;5066146;28;20577;-76
2020/12/17 05:01:18;;;;;;;13.73;10.07;;;9.00;92.90;;;;;;5064176;28;20082;-73
2020/12/17 05:03:48;;;;;;;14.05;9.02;;;9.00;93.00;;;;;;5060401;28;20462;-73
2020/12/17 05:06:24;;;;;;;14.65;9.77;;;9.00;93.00;;;;;;5063233;28;20426;-74
2020/12/17 05:08:50;;;;;;;14.38;10.70;;;9.00;92.90;;;;;;5059762;28;20056;-73
2020/12/17 05:11:16;;;;;;;13.40;9.45;;;9.00;92.90;;;;;;5062305;28;20127;-77
2020/12/17 05:13:42;;;;;;;14.57;10.70;;;9.00;92.90;;;;;;5057319;28;20630;-73
2020/12/17 05:16:08;;;;;;;14.95;10.88;;;9.10;92.90;;;;;;5064480;28;20337;-74
2020/12/17 05:18:34;;;;;;;11.77;9.48;;;9.00;92.90;;;;;;5062748;28;20037;-73
2020/12/17 05:21:01;;;;;;;14.68;9.75;;;9.00;92.90;;;;;;5063338;28;20505;-73
2020/12/17 05:23:28;;;;;;;15.88;10.80;;;9.00;92.80;;;;;;5066693;28;20037;-74
2020/12/17 05:25:55;;;;;;;13.10;9.35;;;9.10;92.80;;;;;;5061006;28;20036;-73
2020/12/17 05:28:20;;;;;;;15.65;11.15;;;9.10;92.80;;;;;;5078874;28;20040;-74
2020/12/17 05:30:46;;;;;;;13.05;9.60;;;9.10;92.80;;;;;;5064259;28;20539;-74
2020/12/17 05:33:12;;;;;;;14.73;10.05;;;9.00;92.80;;;;;;5067986;28;20040;-74
2020/12/17 05:35:39;;;;;;;12.07;9.63;;;9.00;92.80;;;;;;5071530;28;20028;-74
2020/12/17 05:38:07;;;;;;;14.30;10.30;;;9.00;92.90;;;;;;5061612;28;20111;-75
2020/12/17 05:40:40;;;;;;;14.30;9.95;;;9.10;92.90;;;;;;5063147;28;20033;-73
2020/12/17 05:43:07;;;;;;;13.70;9.88;;;9.10;92.80;;;;;;5071509;28;20473;-73
2020/12/17 05:45:34;;;;;;;14.95;9.40;;;9.10;92.70;;;;;;5034664;28;20041;-74
2020/12/17 05:48:10;;;;;;;13.50;9.70;;;9.10;92.70;;;;;;5051900;28;20036;-74
2020/12/17 05:50:50;;;;;;;15.57;10.68;;;9.10;92.60;;;;;;5053549;28;20086;-75
2020/12/17 05:53:16;;;;;;;13.50;10.35;;;9.10;92.60;;;;;;5062408;28;20052;-74
2020/12/17 05:55:42;;;;;;;17.42;10.93;;;9.20;92.70;;;;;;5071403;28;20120;-74
2020/12/17 05:58:12;;;;;;;17.00;12.10;;;9.10;92.70;;;;;;5063260;28;20236;-75
2020/12/17 06:00:38;;;;;;;16.00;10.27;;;9.10;92.60;;;;;;5043197;28;20037;-74
2020/12/17 06:03:09;;;;;;;14.63;10.50;;;9.10;92.60;;;;;;5061114;28;20429;-73
2020/12/17 06:05:44;;;;;;;16.30;10.20;;;9.10;92.50;;;;;;5067992;28;20120;-73
2020/12/17 06:08:17;;;;;;;16.77;10.63;;;9.10;92.60;;;;;;5068113;28;20032;-77
2020/12/17 06:10:55;;;;;;;15.52;10.52;;;9.10;92.60;;;;;;5063363;28;20429;-73
2020/12/17 06:13:20;;;;;;;17.15;12.52;;;9.20;92.50;;;;;;5067362;28;20450;-73
2020/12/17 06:15:54;;;;;;;16.00;11.00;;;9.20;92.50;;;;;;5064467;28;20384;-74
2020/12/17 06:18:22;;;;;;;16.38;10.65;;;9.20;92.50;;;;;;5050119;28;20117;-74
2020/12/17 06:20:49;;;;;;;14.93;11.00;;;9.10;92.40;;;;;;5053085;28;20036;-74
2020/12/17 06:23:14;;;;;;;14.98;9.63;;;9.20;92.40;;;;;;5066109;28;20029;-74
2020/12/17 06:25:41;;;;;;;14.52;9.68;;;9.10;92.30;;;;;;5060766;28;20487;-76
2020/12/17 06:28:46;;;;;;;19.50;11.80;;;9.10;92.20;;;;;;5041297;28;20025;-77
2020/12/17 06:31:25;;;;;;;17.80;11.10;;;9.00;92.10;;;;;;5034451;28;20049;-73
2020/12/17 06:33:54;;;;;;;19.58;10.30;;;8.90;92.10;;;;;;5042029;28;20021;-75
2020/12/17 06:36:27;;;;;;;14.00;9.80;;;8.80;92.30;;;;;;5048020;28;20445;-73
2020/12/17 06:38:54;;;;;;;14.25;9.02;;;8.70;92.30;;;;;;5049448;28;20132;-74
2020/12/17 06:41:23;;;;;;;15.35;10.07;;;8.70;92.40;;;;;;5044966;28;20029;-77
2020/12/17 06:43:49;;;;;;;16.48;11.05;;;8.70;92.50;;;;;;5047015;28;20025;-75
2020/12/17 06:46:34;;;;;;;17.60;10.65;;;8.60;92.60;;;;;;5057816;28;20387;-73
2020/12/17 06:49:01;;;;;;;17.23;10.93;;;8.60;92.60;;;;;;5035242;28;20072;-75
2020/12/17 06:51:41;;;;;;;16.02;10.73;;;8.50;92.70;;;;;;5054681;28;20033;-75
2020/12/17 06:54:09;;;;;;;14.73;10.82;;;8.50;92.90;;;;;;5046229;28;20067;-76
2020/12/17 06:56:40;;;;;;;15.82;10.93;;;8.60;93.00;;;;;;5045980;28;20031;-81
2020/12/17 06:59:19;;;;;;;15.85;11.57;;;8.50;92.90;;;;;;5044533;28;20083;-75
2020/12/17 07:01:47;;;;;;;15.98;11.35;;;8.50;92.90;;;;;;5060409;28;20458;-75
2020/12/17 07:04:33;;;;;;;15.60;10.65;;;8.40;93.10;;;;;;5064306;28;20203;-75
2020/12/17 07:07:28;;;;;;;17.52;11.90;;;8.40;93.00;;;;;;5066138;28;20066;-77
2020/12/17 07:09:56;;;;;;;16.10;11.38;;;8.40;93.10;;;;;;5050323;28;20032;-75
2020/12/17 07:12:34;;;;;;;15.45;10.80;;;8.30;93.20;;;;;;5046447;28;20114;-76
2020/12/17 07:15:05;;;;;;;18.83;10.77;;;8.40;93.30;;;;;;5052073;28;20039;-75
2020/12/17 07:17:30;;;;;;;18.08;12.80;;;8.40;93.30;;;;;;5051491;28;20128;-74
2020/12/17 07:19:56;;;;;;;16.33;11.73;;;8.50;93.20;;;;;;5047153;28;20467;-76
2020/12/17 07:22:22;;;;;;;18.80;10.88;;;8.40;93.10;;;;;;5048182;28;20048;-74
2020/12/17 07:24:50;;;;;;;15.10;9.90;;;8.50;93.10;;;;;;5043928;28;20017;-75
2020/12/17 07:27:18;;;;;;;16.85;9.75;;;8.50;93.00;;;;;;5045912;28;20375;-74
2020/12/17 07:29:58;;;;;;;15.20;9.60;;;8.50;92.80;;;;;;5044587;28;20048;-75
2020/12/17 07:32:30;;;;;;;16.63;9.88;;;8.50;92.70;;;;;;5046971;28;20029;-76
2020/12/17 07:34:59;;;;;;;20.85;10.55;;;8.60;92.60;;;;;;5042667;28;20079;-74
2020/12/17 07:37:41;;;;;;;16.52;9.88;;;8.50;92.60;;;;;;5062744;28;20520;-75
2020/12/17 07:40:22;;;;;;;15.23;9.43;;;8.60;92.70;;;;;;5064381;28;20033;-75
2020/12/17 07:43:01;;;;;;;17.17;10.18;;;8.60;92.60;;;;;;5049282;28;20122;-74
2020/12/17 07:45:52;;;;;;;18.38;10.00;;;8.60;92.50;;;;;;5062993;28;20119;-74
2020/12/17 07:48:41;;;;;;;16.23;10.02;;;8.60;92.40;;;;;;5040649;28;20411;-75
2020/12/17 07:51:12;;;;;;;14.55;9.48;;;8.70;92.40;;;;;;5056592;28;20106;-77
2020/12/17 07:53:38;;;;;;;14.70;9.35;;;8.70;92.40;;;;;;5063591;28;20041;-74
2020/12/17 07:56:06;;;;;;;18.30;10.02;;;8.70;92.20;;;;;;5063046;28;20021;-75
2020/12/17 07:58:32;;;;;;;14.02;9.05;;;8.80;92.10;;;;;;5065258;28;20052;-76
2020/12/17 08:00:58;;;;;;;16.00;9.15;;;8.80;91.90;;;;;;5054480;28;20506;-74
2020/12/17 08:03:24;;;;;;;18.92;10.35;;;8.70;91.80;;;;;;5046863;28;20028;-74
2020/12/17 08:05:51;;;;;;;16.35;9.55;;;8.70;91.80;;;;;;5045540;28;20036;-74
2020/12/17 08:08:17;;;;;;;16.27;10.27;;;8.70;91.90;;;;;;5046651;28;20037;-73
2020/12/17 08:10:44;;;;;;;15.85;9.45;;;8.70;91.90;;;;;;5040564;28;20026;-74
2020/12/17 08:13:10;;;;;;;16.38;10.30;;;8.70;91.80;;;;;;5039953;28;20037;-76
2020/12/17 08:15:36;;;;;;;16.70;9.65;;;8.60;91.80;;;;;;5056451;28;20028;-74
2020/12/17 08:18:02;;;;;;;15.98;10.32;;;8.60;91.70;;;;;;5047866;28;20020;-74
2020/12/17 08:20:29;;;;;;;18.75;9.65;;;8.60;91.90;;;;;;5065139;28;20041;-73
2020/12/17 08:22:55;;;;;;;15.23;10.18;;;8.60;91.90;;;;;;5059093;28;20028;-74
2020/12/17 08:25:22;;;;;;;15.63;9.88;;;8.60;91.90;;;;;;5065197;28;20045;-73
2020/12/17 08:27:48;;;;;;;20.23;10.85;;;8.50;91.90;;;;;;5047100;28;20044;-75
2020/12/17 08:30:14;;;;;;;17.40;10.73;;;8.60;91.90;;;;;;5048212;28;20452;-75
2020/12/17 08:32:53;;;;;;;15.93;10.10;;;8.60;91.90;;;;;;5042266;28;20144;-73
2020/12/17 08:35:25;;;;;;;17.52;10.25;;;8.50;91.80;;;;;;5045534;28;20567;-74
2020/12/17 08:37:55;;;;;;;16.50;9.85;;;8.50;91.90;;;;;;5043356;28;20025;-73
2020/12/17 08:40:28;;;;;;;14.40;10.15;;;8.50;91.80;;;;;;5046941;28;20064;-71
2020/12/17 08:43:03;;;;;;;14.80;9.55;;;8.60;91.80;;;;;;5055475;28;20031;-75
2020/12/17 08:45:29;;;;;;;16.63;10.50;;;8.60;91.60;;;;;;5044349;28;20048;-75
2020/12/17 08:47:59;;;;;;;18.45;10.02;;;8.60;91.30;;;;;;5034586;28;20029;-72
2020/12/17 08:50:26;;;;;;;16.20;8.77;;;8.70;91.20;;;;;;5058939;28;20037;-72
2020/12/17 08:52:53;;;;;;;13.88;9.00;;;8.80;90.70;;;;;;5066893;28;20032;-73
2020/12/17 08:55:19;;;;;;;16.90;8.95;;;8.80;90.50;;;;;;5062777;28;20451;-73
2020/12/17 08:57:45;;;;;;;12.80;7.80;;;8.90;90.50;;;;;;5058204;28;20037;-77
2020/12/17 09:00:16;;;;;;;15.20;8.50;;;8.90;90.10;;;;;;5064393;28;20021;-78
2020/12/17 09:02:42;;;;;;;18.05;9.45;;;8.90;90.00;;;;;;5081008;28;20040;-73
2020/12/17 09:05:12;;;;;;;18.33;8.80;;;8.90;89.80;;;;;;5062757;28;20467;-77
2020/12/17 09:07:40;;;;;;;18.58;8.15;;;9.00;89.70;;;;;;5062543;28;20025;-73
2020/12/17 09:10:13;;;;;;;19.45;9.13;;;9.10;89.50;;;;;;5063066;28;20467;-78
2020/12/17 09:12:39;;;;;;;16.25;8.75;;;9.10;89.30;;;;;;5064465;28;20032;-76
2020/12/17 09:15:11;;;;;;;13.18;8.35;;;9.10;89.00;;;;;;5064701;28;20029;-75
2020/12/17 09:17:38;;;;;;;13.02;8.27;;;9.10;88.80;;;;;;5061463;28;20020;-75
2020/12/17 09:20:20;;;;;;;11.63;6.97;;;9.20;88.60;;;;;;5063793;28;20024;-81
2020/12/17 09:22:46;;;;;;;14.70;7.80;;;9.30;88.40;;;;;;5065266;28;20090;-76
2020/12/17 09:25:15;;;;;;;13.98;8.02;;;9.30;88.30;;;;;;5065874;28;20074;-76
2020/12/17 09:27:43;;;;;;;14.98;8.05;;;9.50;88.00;;;;;;5061931;28;20458;-76
2020/12/17 09:30:14;;;;;;;15.93;7.68;;;9.50;87.80;;;;;;5064581;28;20079;-77
2020/12/17 09:32:54;;;;;;;17.55;7.50;;;9.60;87.50;;;;;;5064074;28;20043;-75
2020/12/17 09:35:22;;;;;;;15.48;8.30;;;9.60;87.30;;;;;;5062039;28;20036;-75
2020/12/17 09:38:18;;;;;;;20.85;7.35;;;9.70;87.30;;;;;;5063588;28;20108;-75
2020/12/17 09:40:46;;;;;;;11.93;7.57;;;9.70;86.70;;;;;;5056262;28;20048;-75
2020/12/17 09:43:13;;;;;;;16.38;7.10;;;9.80;86.50;;;;;;5045719;28;20031;-76
2020/12/17 09:45:44;;;;;;;16.10;6.97;;;9.90;86.30;;;;;;5036008;28;20033;-75
2020/12/17 09:48:17;;;;;;;14.90;6.97;;;9.90;85.90;;;;;;5059148;28;20029;-75
2020/12/17 09:50:56;;;;;;;13.68;6.88;;;10.00;86.20;;;;;;5060266;28;20041;-75
2020/12/17 09:53:25;;;;;;;15.63;6.88;;;10.00;86.00;;;;;;5046072;28;20040;-76
2020/12/17 09:55:51;;;;;;;13.77;6.32;;;10.10;85.70;;;;;;5039636;28;20035;-76
2020/12/17 09:58:17;;;;;;;13.38;6.60;;;10.10;85.50;;;;;;5068293;28;20033;-76
2020/12/17 10:00:43;;;;;;;16.88;6.72;;;10.10;85.70;;;;;;5064112;28;20037;-76
2020/12/17 10:03:08;;;;;;;14.75;6.60;;;10.20;85.40;;;;;;5064868;28;20035;-78
2020/12/17 10:05:34;;;;;;;13.50;6.25;;;10.20;85.10;;;;;;5033836;28;20026;-76
2020/12/17 10:08:00;;;;;;;13.32;6.30;;;10.30;85.50;;;;;;5047042;28;20535;-77
2020/12/17 10:10:26;;;;;;;12.75;6.50;;;10.40;85.00;;;;;;5042921;28;20112;-76
2020/12/17 10:12:52;;;;;;;11.13;5.63;;;10.40;84.60;;;;;;5037576;28;20031;-77
2020/12/17 10:15:17;;;;;;;13.38;5.82;;;10.40;84.90;;;;;;5047492;28;20035;-76
2020/12/17 10:17:43;;;;;;;12.52;5.72;;;10.40;84.90;;;;;;5050106;28;20059;-76
2020/12/17 10:20:10;;;;;;;13.98;6.15;;;10.50;84.60;;;;;;5047217;28;20029;-76
2020/12/17 10:22:36;;;;;;;13.80;5.45;;;10.50;84.30;;;;;;5042812;28;20487;-77
2020/12/17 10:25:05;;;;;;;11.32;5.38;;;10.60;84.10;;;;;;5046281;28;20025;-76
2020/12/17 10:27:31;;;;;;;16.25;5.38;;;10.60;84.30;;;;;;5045822;28;20025;-76
2020/12/17 10:29:57;;;;;;;14.32;5.57;;;10.60;84.20;;;;;;5057692;28;20421;-76
2020/12/17 10:32:22;;;;;;;10.80;4.82;;;10.60;84.10;;;;;;5050632;28;20064;-77
2020/12/17 10:34:48;;;;;;;14.57;5.53;;;10.70;83.50;;;;;;5045359;28;20079;-76
2020/12/17 10:37:13;;;;;;;12.07;5.20;;;10.70;83.90;;;;;;5048195;28;20035;-76
2020/12/17 10:39:39;;;;;;;18.48;5.10;;;10.80;83.50;;;;;;5044068;28;20033;-76
2020/12/17 10:42:05;;;;;;;11.63;4.80;;;10.90;83.00;;;;;;5045283;28;20355;-76
2020/12/17 10:44:31;;;;;;;11.48;4.45;;;11.00;83.20;;;;;;5047426;28;20040;-75
2020/12/17 10:46:57;;;;;;;16.73;5.50;;;11.00;82.60;;;;;;5052758;28;20025;-81
2020/12/17 10:49:22;;;;;;;13.02;4.85;;;11.00;82.60;;;;;;5045159;28;20025;-73
2020/12/17 10:51:51;;;;;;;10.68;4.75;;;11.00;82.70;;;;;;5043795;28;20052;-74
2020/12/17 10:54:17;;;;;;;11.07;5.00;;;11.10;82.40;;;;;;5048302;28;20033;-73
2020/12/17 10:56:48;;;;;;;11.23;4.63;;;11.10;81.90;;;;;;5061636;28;20039;-72
2020/12/17 10:59:14;;;;;;;10.98;4.88;;;11.20;81.90;;;;;;5054404;28;20116;-74
2020/12/17 11:01:40;;;;;;;11.05;4.60;;;11.30;81.80;;;;;;5043967;28;20116;-73
2020/12/17 11:04:05;;;;;;;15.45;4.53;;;11.40;81.20;;;;;;5047038;28;20029;-72
2020/12/17 11:06:31;;;;;;;16.63;4.50;;;11.40;80.90;;;;;;5039906;28;20489;-75
2020/12/17 11:08:57;;;;;;;15.50;4.30;;;11.30;81.00;;;;;;5047760;28;20041;-72
2020/12/17 11:11:22;;;;;;;16.15;4.32;;;11.40;81.50;;;;;;5042914;28;20482;-73
2020/12/17 11:13:48;;;;;;;14.25;4.82;;;11.40;80.40;;;;;;5047469;28;20045;-72
2020/12/17 11:16:14;;;;;;;13.45;4.45;;;11.20;80.90;;;;;;5043375;28;20041;-72
2020/12/17 11:18:40;;;;;;;14.15;4.00;;;11.20;81.30;;;;;;5047096;28;20167;-78
2020/12/17 11:21:06;;;;;;;12.40;4.05;;;11.10;82.00;;;;;;5043629;28;20037;-75
2020/12/17 11:23:33;;;;;;;11.55;3.78;;;11.00;81.90;;;;;;5048766;28;20033;-72
2020/12/17 11:26:01;;;;;;;12.38;4.25;;;11.10;81.60;;;;;;5042765;28;20068;-72
2020/12/17 11:28:27;;;;;;;11.63;4.32;;;11.10;81.40;;;;;;5044519;28;20563;-72
2020/12/17 11:30:52;;;;;;;13.80;4.53;;;10.90;81.80;;;;;;5041727;28;20175;-72
2020/12/17 11:33:18;;;;;;;11.23;3.50;;;11.00;82.10;;;;;;5046319;28;20483;-73
2020/12/17 11:35:43;;;;;;;12.85;4.55;;;11.00;82.00;;;;;;5044436;28;20131;-72
2020/12/17 11:38:09;;;;;;;13.13;3.80;;;11.00;82.20;;;;;;5053398;28;20033;-72
2020/12/17 11:40:35;;;;;;;15.73;4.50;;;11.00;81.80;;;;;;5052427;28;20041;-72
2020/12/17 11:43:06;;;;;;;11.13;4.38;;;11.00;82.10;;;;;;5053034;28;20113;-73
2020/12/17 11:45:32;;;;;;;10.98;3.78;;;11.00;81.40;;;;;;5055646;28;20085;-72
2020/12/17 11:47:57;;;;;;;8.32;3.90;;;11.00;81.20;;;;;;5062404;28;20028;-72
2020/12/17 11:50:23;;;;;;;16.23;4.43;;;11.10;81.30;;;;;;5051950;28;20400;-73
2020/12/17 11:52:49;;;;;;;12.50;4.22;;;11.10;81.50;;;;;;5043912;28;20515;-74
2020/12/17 11:55:15;;;;;;;13.07;4.55;;;11.10;81.20;;;;;;5047822;28;20053;-73
2020/12/17 11:57:40;;;;;;;11.65;3.85;;;11.10;81.60;;;;;;5053282;28;20112;-72
2020/12/17 12:00:07;;;;;;;10.73;3.78;;;11.10;81.30;;;;;;5065225;28;20025;-73
2020/12/17 12:02:36;;;;;;;14.07;3.72;;;11.10;81.10;;;;;;5064393;28;20399;-72
2020/12/17 12:05:03;;;;;;;12.23;3.92;;;11.10;81.40;;;;;;5064072;28;20033;-73
2020/12/17 12:07:28;;;;;;;14.88;4.30;;;11.10;81.20;;;;;;5067511;28;20032;-72
2020/12/17 12:09:54;;;;;;;19.63;4.40;;;11.10;81.00;;;;;;5067345;28;20086;-73
2020/12/17 12:12:19;;;;;;;12.07;3.67;;;11.10;81.10;;;;;;5052145;28;20036;-71
2020/12/17 12:14:45;;;;;;;11.27;3.53;;;11.10;80.80;;;;;;5062008;28;20052;-71
2020/12/17 12:17:11;;;;;;;12.48;4.28;;;11.10;81.30;;;;;;5066330;28;20035;-73
2020/12/17 12:19:37;;;;;;;10.68;3.83;;;11.20;80.90;;;;;;5067545;28;20031;-72
2020/12/17 12:22:02;;;;;;;11.80;3.60;;;11.40;79.90;;;;;;5062817;28;20044;-72
2020/12/17 12:24:28;;;;;;;13.45;4.22;;;11.40;79.70;;;;;;5062365;28;20403;-72
2020/12/17 12:26:54;;;;;;;13.32;4.13;;;11.50;79.50;;;;;;5066541;28;20024;-72
2020/12/17 12:29:19;;;;;;;9.90;3.78;;;11.30;79.90;;;;;;5067970;28;20039;-76
2020/12/17 12:31:49;;;;;;;27.08;4.47;;;11.20;80.00;;;;;;5055981;28;20037;-72
2020/12/17 12:34:15;;;;;;;15.82;3.65;;;11.30;80.10;;;;;;5066230;28;20128;-71
2020/12/17 12:36:41;;;;;;;11.18;3.22;;;11.30;79.90;;;;;;5063944;28;20144;-78
2020/12/17 12:39:06;;;;;;;10.73;3.13;;;11.30;79.90;;;;;;5062190;28;20048;-71
2020/12/17 12:41:32;;;;;;;11.30;3.65;;;11.30;79.90;;;;;;5062364;28;20040;-71
2020/12/17 12:43:58;;;;;;;9.15;3.33;;;11.30;80.30;;;;;;5065431;28;20393;-73